Wichita Falls, Texas
Current Conditions -  °F | °C
As of 9:55 AM on Friday 24 Oct 2014 (Local Time) from KCWC Reporting Station
Clear Clear  
Wind Chill: 69°   Ceiling: Unl
Heat Index: 69°   Visibility: 10mi
Dew Point: 60°   Wind: 10mph
Humidity: 73%   Direction: 230°SW
Pressure: 30.14"   Gusts: NA
Location:  33.91°N, 98.5°W
Report Text: KCWC 241455Z AUTO 23009KT 10SM CLR 20/15 A3014 RMK AO2 T02030154
Loading
Personal Weather Stations






























Interactive Weather Map New forecast layout! Learn more

10-Day Weather Forecast

Advertisements
Track Severe Weather on mobile